sensor_id;sensor_type;location;lat;lon;timestamp;P1;durP1;ratioP1;P2;durP2;ratioP2
47659;SDS011;33403;43.608;1.458;2023-02-01T00:00:37;11.77;;;8.53;;
47659;SDS011;33403;43.608;1.458;2023-02-01T00:03:03;13.27;;;8.77;;
47659;SDS011;33403;43.608;1.458;2023-02-01T00:05:30;14.33;;;9.30;;
47659;SDS011;33403;43.608;1.458;2023-02-01T00:07:56;12.73;;;9.20;;
47659;SDS011;33403;43.608;1.458;2023-02-01T00:10:22;13.00;;;9.20;;
47659;SDS011;33403;43.608;1.458;2023-02-01T00:12:48;11.97;;;8.57;;
47659;SDS011;33403;43.608;1.458;2023-02-01T00:15:14;12.50;;;9.40;;
47659;SDS011;33403;43.608;1.458;2023-02-01T00:17:40;13.90;;;9.77;;
47659;SDS011;33403;43.608;1.458;2023-02-01T00:20:07;16.00;;;9.87;;
47659;SDS011;33403;43.608;1.458;2023-02-01T00:22:33;15.10;;;10.40;;
47659;SDS011;33403;43.608;1.458;2023-02-01T00:24:59;14.20;;;9.50;;
47659;SDS011;33403;43.608;1.458;2023-02-01T00:27:25;14.30;;;10.10;;
47659;SDS011;33403;43.608;1.458;2023-02-01T00:29:51;15.10;;;10.37;;
47659;SDS011;33403;43.608;1.458;2023-02-01T00:32:17;14.23;;;9.93;;
47659;SDS011;33403;43.608;1.458;2023-02-01T00:34:43;13.87;;;9.83;;
47659;SDS011;33403;43.608;1.458;2023-02-01T00:37:09;14.50;;;9.90;;
47659;SDS011;33403;43.608;1.458;2023-02-01T00:39:35;11.80;;;8.83;;
47659;SDS011;33403;43.608;1.458;2023-02-01T00:42:01;12.60;;;9.20;;
47659;SDS011;33403;43.608;1.458;2023-02-01T00:44:27;15.13;;;10.50;;
47659;SDS011;33403;43.608;1.458;2023-02-01T00:46:57;21.23;;;14.13;;
47659;SDS011;33403;43.608;1.458;2023-02-01T00:49:24;20.67;;;14.27;;
47659;SDS011;33403;43.608;1.458;2023-02-01T00:51:50;21.00;;;14.67;;
47659;SDS011;33403;43.608;1.458;2023-02-01T00:54:16;19.70;;;14.37;;
47659;SDS011;33403;43.608;1.458;2023-02-01T00:56:42;20.70;;;14.30;;
47659;SDS011;33403;43.608;1.458;2023-02-01T00:59:10;18.90;;;13.97;;
47659;SDS011;33403;43.608;1.458;2023-02-01T01:01:37;20.40;;;14.27;;
47659;SDS011;33403;43.608;1.458;2023-02-01T01:04:04;20.73;;;13.53;;
47659;SDS011;33403;43.608;1.458;2023-02-01T01:06:31;22.43;;;13.87;;
47659;SDS011;33403;43.608;1.458;2023-02-01T01:08:58;18.07;;;13.03;;
47659;SDS011;33403;43.608;1.458;2023-02-01T01:11:26;20.63;;;13.70;;
47659;SDS011;33403;43.608;1.458;2023-02-01T01:13:52;19.90;;;13.73;;
47659;SDS011;33403;43.608;1.458;2023-02-01T01:16:19;20.57;;;14.17;;
47659;SDS011;33403;43.608;1.458;2023-02-01T01:18:45;22.80;;;14.90;;
47659;SDS011;33403;43.608;1.458;2023-02-01T01:21:12;21.10;;;15.07;;
47659;SDS011;33403;43.608;1.458;2023-02-01T01:23:39;20.77;;;14.63;;
47659;SDS011;33403;43.608;1.458;2023-02-01T01:26:06;22.10;;;14.47;;
47659;SDS011;33403;43.608;1.458;2023-02-01T01:28:32;20.93;;;14.33;;
47659;SDS011;33403;43.608;1.458;2023-02-01T01:30:58;21.43;;;15.00;;
47659;SDS011;33403;43.608;1.458;2023-02-01T01:33:24;19.43;;;13.33;;
47659;SDS011;33403;43.608;1.458;2023-02-01T01:35:50;21.30;;;14.30;;
47659;SDS011;33403;43.608;1.458;2023-02-01T01:38:16;19.30;;;13.90;;
47659;SDS011;33403;43.608;1.458;2023-02-01T01:40:45;19.03;;;13.10;;
47659;SDS011;33403;43.608;1.458;2023-02-01T01:43:13;18.77;;;13.50;;
47659;SDS011;33403;43.608;1.458;2023-02-01T01:45:39;19.37;;;13.17;;
47659;SDS011;33403;43.608;1.458;2023-02-01T01:48:09;20.03;;;12.50;;
47659;SDS011;33403;43.608;1.458;2023-02-01T01:50:40;19.40;;;13.03;;
47659;SDS011;33403;43.608;1.458;2023-02-01T01:53:07;18.87;;;12.90;;
47659;SDS011;33403;43.608;1.458;2023-02-01T01:55:35;19.10;;;12.40;;
47659;SDS011;33403;43.608;1.458;2023-02-01T01:58:08;19.03;;;12.53;;
47659;SDS011;33403;43.608;1.458;2023-02-01T02:00:35;16.23;;;11.63;;
47659;SDS011;33403;43.608;1.458;2023-02-01T02:03:07;18.83;;;12.10;;
47659;SDS011;33403;43.608;1.458;2023-02-01T02:05:34;17.63;;;11.53;;
47659;SDS011;33403;43.608;1.458;2023-02-01T02:08:00;16.70;;;11.63;;
47659;SDS011;33403;43.608;1.458;2023-02-01T02:10:26;14.20;;;10.90;;
47659;SDS011;33403;43.608;1.458;2023-02-01T02:13:11;16.40;;;10.90;;
47659;SDS011;33403;43.608;1.458;2023-02-01T02:15:40;15.23;;;10.70;;
47659;SDS011;33403;43.608;1.458;2023-02-01T02:18:16;16.73;;;11.03;;
47659;SDS011;33403;43.608;1.458;2023-02-01T02:20:56;15.90;;;10.83;;
47659;SDS011;33403;43.608;1.458;2023-02-01T02:23:33;17.00;;;10.47;;
47659;SDS011;33403;43.608;1.458;2023-02-01T02:31:14;14.30;;;10.07;;
47659;SDS011;33403;43.608;1.458;2023-02-01T02:33:51;16.30;;;10.93;;
47659;SDS011;33403;43.608;1.458;2023-02-01T02:47:17;14.60;;;10.03;;
47659;SDS011;33403;43.608;1.458;2023-02-01T02:52:38;15.00;;;9.77;;
47659;SDS011;33403;43.608;1.458;2023-02-01T02:55:27;14.00;;;9.40;;
47659;SDS011;33403;43.608;1.458;2023-02-01T02:57:54;13.17;;;8.83;;
47659;SDS011;33403;43.608;1.458;2023-02-01T03:00:40;14.03;;;9.70;;
47659;SDS011;33403;43.608;1.458;2023-02-01T03:03:26;12.40;;;8.90;;
47659;SDS011;33403;43.608;1.458;2023-02-01T03:06:14;11.73;;;7.93;;
47659;SDS011;33403;43.608;1.458;2023-02-01T03:08:42;13.40;;;8.67;;
47659;SDS011;33403;43.608;1.458;2023-02-01T03:11:11;12.40;;;8.00;;
47659;SDS011;33403;43.608;1.458;2023-02-01T03:13:40;10.87;;;8.00;;
47659;SDS011;33403;43.608;1.458;2023-02-01T03:16:22;12.03;;;8.27;;
47659;SDS011;33403;43.608;1.458;2023-02-01T03:18:54;11.93;;;8.03;;
47659;SDS011;33403;43.608;1.458;2023-02-01T03:21:22;11.43;;;8.13;;
47659;SDS011;33403;43.608;1.458;2023-02-01T03:23:49;10.77;;;7.57;;
47659;SDS011;33403;43.608;1.458;2023-02-01T03:26:16;14.27;;;8.53;;
47659;SDS011;33403;43.608;1.458;2023-02-01T03:28:44;12.50;;;8.10;;
47659;SDS011;33403;43.608;1.458;2023-02-01T03:31:11;10.63;;;7.90;;
47659;SDS011;33403;43.608;1.458;2023-02-01T03:33:39;11.80;;;8.13;;
47659;SDS011;33403;43.608;1.458;2023-02-01T03:36:09;12.97;;;7.97;;
47659;SDS011;33403;43.608;1.458;2023-02-01T03:41:37;10.53;;;7.30;;
47659;SDS011;33403;43.608;1.458;2023-02-01T03:49:45;8.27;;;6.30;;
47659;SDS011;33403;43.608;1.458;2023-02-01T03:52:16;8.90;;;6.00;;
47659;SDS011;33403;43.608;1.458;2023-02-01T03:54:43;8.97;;;6.10;;
47659;SDS011;33403;43.608;1.458;2023-02-01T03:57:11;8.20;;;6.40;;
47659;SDS011;33403;43.608;1.458;2023-02-01T03:59:41;8.53;;;6.03;;
47659;SDS011;33403;43.608;1.458;2023-02-01T04:02:07;9.13;;;6.07;;
47659;SDS011;33403;43.608;1.458;2023-02-01T04:04:34;8.43;;;6.07;;
47659;SDS011;33403;43.608;1.458;2023-02-01T04:07:00;7.97;;;6.00;;
47659;SDS011;33403;43.608;1.458;2023-02-01T04:09:26;8.13;;;5.63;;
47659;SDS011;33403;43.608;1.458;2023-02-01T04:11:52;9.13;;;5.80;;
47659;SDS011;33403;43.608;1.458;2023-02-01T04:14:18;8.50;;;5.30;;
47659;SDS011;33403;43.608;1.458;2023-02-01T04:16:44;7.07;;;5.00;;
47659;SDS011;33403;43.608;1.458;2023-02-01T04:19:10;8.07;;;5.47;;
47659;SDS011;33403;43.608;1.458;2023-02-01T04:21:36;7.90;;;5.27;;
47659;SDS011;33403;43.608;1.458;2023-02-01T04:24:03;6.43;;;5.00;;
47659;SDS011;33403;43.608;1.458;2023-02-01T04:26:29;7.23;;;5.30;;
47659;SDS011;33403;43.608;1.458;2023-02-01T04:28:55;6.77;;;4.77;;
47659;SDS011;33403;43.608;1.458;2023-02-01T04:31:21;6.97;;;4.93;;
47659;SDS011;33403;43.608;1.458;2023-02-01T04:33:51;7.27;;;5.13;;
47659;SDS011;33403;43.608;1.458;2023-02-01T04:36:17;6.73;;;4.90;;
47659;SDS011;33403;43.608;1.458;2023-02-01T04:38:45;6.93;;;4.83;;
47659;SDS011;33403;43.608;1.458;2023-02-01T04:41:12;5.87;;;4.27;;
47659;SDS011;33403;43.608;1.458;2023-02-01T04:43:38;6.57;;;4.30;;
47659;SDS011;33403;43.608;1.458;2023-02-01T04:46:04;5.27;;;4.03;;
47659;SDS011;33403;43.608;1.458;2023-02-01T04:48:30;4.97;;;3.97;;
47659;SDS011;33403;43.608;1.458;2023-02-01T04:50:56;4.27;;;3.33;;
47659;SDS011;33403;43.608;1.458;2023-02-01T04:53:22;5.50;;;3.93;;
47659;SDS011;33403;43.608;1.458;2023-02-01T04:55:49;5.83;;;3.97;;
47659;SDS011;33403;43.608;1.458;2023-02-01T04:58:15;5.43;;;3.97;;
47659;SDS011;33403;43.608;1.458;2023-02-01T05:00:41;4.33;;;3.50;;
47659;SDS011;33403;43.608;1.458;2023-02-01T05:03:07;4.93;;;3.43;;
47659;SDS011;33403;43.608;1.458;2023-02-01T05:05:33;4.80;;;3.47;;
47659;SDS011;33403;43.608;1.458;2023-02-01T05:07:59;4.60;;;3.53;;
47659;SDS011;33403;43.608;1.458;2023-02-01T05:10:25;5.00;;;3.77;;
47659;SDS011;33403;43.608;1.458;2023-02-01T05:12:51;4.47;;;3.53;;
47659;SDS011;33403;43.608;1.458;2023-02-01T05:15:36;6.10;;;3.60;;
47659;SDS011;33403;43.608;1.458;2023-02-01T05:18:02;5.17;;;3.70;;
47659;SDS011;33403;43.608;1.458;2023-02-01T05:20:28;4.17;;;3.50;;
47659;SDS011;33403;43.608;1.458;2023-02-01T05:22:54;6.40;;;3.77;;
47659;SDS011;33403;43.608;1.458;2023-02-01T05:25:20;5.43;;;3.87;;
47659;SDS011;33403;43.608;1.458;2023-02-01T05:27:46;5.03;;;3.60;;
47659;SDS011;33403;43.608;1.458;2023-02-01T05:30:12;4.40;;;3.43;;
47659;SDS011;33403;43.608;1.458;2023-02-01T05:32:38;4.83;;;3.50;;
47659;SDS011;33403;43.608;1.458;2023-02-01T05:35:04;5.43;;;4.10;;
47659;SDS011;33403;43.608;1.458;2023-02-01T05:37:30;4.23;;;3.30;;
47659;SDS011;33403;43.608;1.458;2023-02-01T05:39:57;5.43;;;3.87;;
47659;SDS011;33403;43.608;1.458;2023-02-01T05:42:23;5.73;;;3.60;;
47659;SDS011;33403;43.608;1.458;2023-02-01T05:44:49;5.47;;;3.80;;
47659;SDS011;33403;43.608;1.458;2023-02-01T05:47:15;5.20;;;3.63;;
47659;SDS011;33403;43.608;1.458;2023-02-01T05:49:41;4.87;;;4.00;;
47659;SDS011;33403;43.608;1.458;2023-02-01T05:52:07;5.90;;;3.80;;
47659;SDS011;33403;43.608;1.458;2023-02-01T05:54:33;5.80;;;3.80;;
47659;SDS011;33403;43.608;1.458;2023-02-01T05:56:59;4.13;;;3.20;;
47659;SDS011;33403;43.608;1.458;2023-02-01T05:59:25;5.80;;;3.80;;
47659;SDS011;33403;43.608;1.458;2023-02-01T06:01:51;9.13;;;4.17;;
47659;SDS011;33403;43.608;1.458;2023-02-01T06:04:17;6.57;;;4.40;;
47659;SDS011;33403;43.608;1.458;2023-02-01T06:06:43;6.40;;;4.20;;
47659;SDS011;33403;43.608;1.458;2023-02-01T06:09:09;6.13;;;4.23;;
47659;SDS011;33403;43.608;1.458;2023-02-01T06:11:35;5.63;;;4.20;;
47659;SDS011;33403;43.608;1.458;2023-02-01T06:14:01;6.70;;;4.60;;
47659;SDS011;33403;43.608;1.458;2023-02-01T06:16:27;6.30;;;4.53;;
47659;SDS011;33403;43.608;1.458;2023-02-01T06:18:53;6.93;;;4.67;;
47659;SDS011;33403;43.608;1.458;2023-02-01T06:21:19;9.90;;;4.50;;
47659;SDS011;33403;43.608;1.458;2023-02-01T06:23:52;7.50;;;4.70;;
47659;SDS011;33403;43.608;1.458;2023-02-01T06:26:18;7.70;;;4.70;;
47659;SDS011;33403;43.608;1.458;2023-02-01T06:28:44;7.23;;;4.70;;
47659;SDS011;33403;43.608;1.458;2023-02-01T06:31:10;7.60;;;4.57;;
47659;SDS011;33403;43.608;1.458;2023-02-01T06:33:36;6.07;;;4.30;;
47659;SDS011;33403;43.608;1.458;2023-02-01T06:36:04;6.80;;;4.40;;
47659;SDS011;33403;43.608;1.458;2023-02-01T06:38:31;7.23;;;4.60;;
47659;SDS011;33403;43.608;1.458;2023-02-01T06:40:59;5.43;;;4.27;;
47659;SDS011;33403;43.608;1.458;2023-02-01T06:43:26;8.37;;;4.70;;
47659;SDS011;33403;43.608;1.458;2023-02-01T06:45:52;6.50;;;4.43;;
47659;SDS011;33403;43.608;1.458;2023-02-01T06:48:18;6.80;;;4.47;;
47659;SDS011;33403;43.608;1.458;2023-02-01T06:50:44;5.60;;;4.40;;
47659;SDS011;33403;43.608;1.458;2023-02-01T06:53:10;5.93;;;4.40;;
47659;SDS011;33403;43.608;1.458;2023-02-01T06:55:36;6.53;;;4.57;;
47659;SDS011;33403;43.608;1.458;2023-02-01T06:58:03;7.50;;;4.57;;
47659;SDS011;33403;43.608;1.458;2023-02-01T07:00:29;9.20;;;4.47;;
47659;SDS011;33403;43.608;1.458;2023-02-01T07:02:56;9.17;;;5.30;;
47659;SDS011;33403;43.608;1.458;2023-02-01T07:05:23;8.90;;;4.70;;
47659;SDS011;33403;43.608;1.458;2023-02-01T07:07:49;8.70;;;5.40;;
47659;SDS011;33403;43.608;1.458;2023-02-01T07:10:16;9.20;;;5.57;;
47659;SDS011;33403;43.608;1.458;2023-02-01T07:12:42;9.83;;;5.90;;
47659;SDS011;33403;43.608;1.458;2023-02-01T07:15:08;10.53;;;5.83;;
47659;SDS011;33403;43.608;1.458;2023-02-01T07:17:34;8.40;;;5.43;;
47659;SDS011;33403;43.608;1.458;2023-02-01T07:20:00;7.57;;;5.20;;
47659;SDS011;33403;43.608;1.458;2023-02-01T07:22:27;11.97;;;6.40;;
47659;SDS011;33403;43.608;1.458;2023-02-01T07:24:53;9.33;;;5.70;;
47659;SDS011;33403;43.608;1.458;2023-02-01T07:27:19;9.77;;;5.47;;
47659;SDS011;33403;43.608;1.458;2023-02-01T07:29:45;10.33;;;5.77;;
47659;SDS011;33403;43.608;1.458;2023-02-01T07:32:11;12.43;;;5.93;;
47659;SDS011;33403;43.608;1.458;2023-02-01T07:34:37;8.83;;;5.60;;
47659;SDS011;33403;43.608;1.458;2023-02-01T07:37:03;9.63;;;5.40;;
47659;SDS011;33403;43.608;1.458;2023-02-01T07:39:29;9.03;;;5.53;;
47659;SDS011;33403;43.608;1.458;2023-02-01T07:41:57;11.27;;;6.23;;
47659;SDS011;33403;43.608;1.458;2023-02-01T07:44:23;8.97;;;5.40;;
47659;SDS011;33403;43.608;1.458;2023-02-01T07:46:49;10.43;;;5.37;;
47659;SDS011;33403;43.608;1.458;2023-02-01T07:49:15;10.37;;;5.40;;
47659;SDS011;33403;43.608;1.458;2023-02-01T07:51:42;10.93;;;5.90;;
47659;SDS011;33403;43.608;1.458;2023-02-01T07:54:08;10.67;;;5.90;;
47659;SDS011;33403;43.608;1.458;2023-02-01T07:56:34;12.17;;;5.70;;
47659;SDS011;33403;43.608;1.458;2023-02-01T07:59:00;12.33;;;5.67;;
47659;SDS011;33403;43.608;1.458;2023-02-01T08:01:27;14.37;;;6.13;;
47659;SDS011;33403;43.608;1.458;2023-02-01T08:03:55;9.97;;;5.90;;
47659;SDS011;33403;43.608;1.458;2023-02-01T08:06:21;9.53;;;5.67;;
47659;SDS011;33403;43.608;1.458;2023-02-01T08:08:48;10.30;;;5.70;;
47659;SDS011;33403;43.608;1.458;2023-02-01T08:11:15;11.07;;;5.77;;
47659;SDS011;33403;43.608;1.458;2023-02-01T08:13:41;9.33;;;5.20;;
47659;SDS011;33403;43.608;1.458;2023-02-01T08:16:08;8.87;;;5.00;;
47659;SDS011;33403;43.608;1.458;2023-02-01T08:18:35;8.50;;;5.60;;
47659;SDS011;33403;43.608;1.458;2023-02-01T08:21:05;10.53;;;5.53;;
47659;SDS011;33403;43.608;1.458;2023-02-01T08:23:32;7.77;;;5.30;;
47659;SDS011;33403;43.608;1.458;2023-02-01T08:28:44;9.10;;;5.43;;
47659;SDS011;33403;43.608;1.458;2023-02-01T08:31:14;8.87;;;5.37;;
47659;SDS011;33403;43.608;1.458;2023-02-01T08:33:41;8.30;;;5.67;;
47659;SDS011;33403;43.608;1.458;2023-02-01T08:36:08;9.67;;;5.33;;
47659;SDS011;33403;43.608;1.458;2023-02-01T08:38:36;11.20;;;5.57;;
47659;SDS011;33403;43.608;1.458;2023-02-01T08:41:12;10.97;;;5.37;;
47659;SDS011;33403;43.608;1.458;2023-02-01T08:43:38;9.67;;;5.23;;
47659;SDS011;33403;43.608;1.458;2023-02-01T08:46:05;7.33;;;4.43;;
47659;SDS011;33403;43.608;1.458;2023-02-01T08:48:31;10.67;;;5.00;;
47659;SDS011;33403;43.608;1.458;2023-02-01T08:51:00;10.40;;;5.30;;
47659;SDS011;33403;43.608;1.458;2023-02-01T08:53:26;8.53;;;4.90;;
47659;SDS011;33403;43.608;1.458;2023-02-01T08:55:52;8.97;;;4.40;;
47659;SDS011;33403;43.608;1.458;2023-02-01T08:58:18;8.57;;;4.27;;
47659;SDS011;33403;43.608;1.458;2023-02-01T09:00:44;6.57;;;3.80;;
47659;SDS011;33403;43.608;1.458;2023-02-01T09:03:12;7.30;;;4.00;;
47659;SDS011;33403;43.608;1.458;2023-02-01T09:05:39;6.17;;;3.80;;
47659;SDS011;33403;43.608;1.458;2023-02-01T09:08:05;6.43;;;4.03;;
47659;SDS011;33403;43.608;1.458;2023-02-01T09:10:31;5.57;;;3.67;;
47659;SDS011;33403;43.608;1.458;2023-02-01T09:12:57;7.77;;;4.00;;
47659;SDS011;33403;43.608;1.458;2023-02-01T09:15:23;5.33;;;3.73;;
47659;SDS011;33403;43.608;1.458;2023-02-01T09:17:49;7.10;;;3.87;;
47659;SDS011;33403;43.608;1.458;2023-02-01T09:20:15;8.23;;;3.83;;
47659;SDS011;33403;43.608;1.458;2023-02-01T09:22:41;8.17;;;3.97;;
47659;SDS011;33403;43.608;1.458;2023-02-01T09:25:08;7.77;;;4.00;;
47659;SDS011;33403;43.608;1.458;2023-02-01T09:27:34;9.07;;;3.57;;
47659;SDS011;33403;43.608;1.458;2023-02-01T09:30:00;6.53;;;3.78;;
47659;SDS011;33403;43.608;1.458;2023-02-01T09:32:26;8.70;;;3.97;;
47659;SDS011;33403;43.608;1.458;2023-02-01T09:34:53;7.20;;;3.90;;
47659;SDS011;33403;43.608;1.458;2023-02-01T09:37:19;8.97;;;4.30;;
47659;SDS011;33403;43.608;1.458;2023-02-01T09:39:45;6.63;;;4.03;;
47659;SDS011;33403;43.608;1.458;2023-02-01T09:47:37;5.55;;;3.30;;
47659;SDS011;33403;43.608;1.458;2023-02-01T09:50:11;7.03;;;3.37;;
47659;SDS011;33403;43.608;1.458;2023-02-01T09:52:59;9.13;;;3.15;;
47659;SDS011;33403;43.608;1.458;2023-02-01T09:55:32;9.30;;;3.40;;
47659;SDS011;33403;43.608;1.458;2023-02-01T10:00:38;9.02;;;2.90;;
47659;SDS011;33403;43.608;1.458;2023-02-01T10:03:05;8.00;;;3.20;;
47659;SDS011;33403;43.608;1.458;2023-02-01T10:05:55;6.40;;;3.37;;
47659;SDS011;33403;43.608;1.458;2023-02-01T10:08:31;6.25;;;3.33;;
47659;SDS011;33403;43.608;1.458;2023-02-01T10:19:06;8.07;;;3.50;;
47659;SDS011;33403;43.608;1.458;2023-02-01T10:21:32;8.23;;;3.53;;
47659;SDS011;33403;43.608;1.458;2023-02-01T10:26:42;9.63;;;3.38;;
47659;SDS011;33403;43.608;1.458;2023-02-01T10:29:15;11.97;;;3.63;;
47659;SDS011;33403;43.608;1.458;2023-02-01T10:31:42;9.40;;;2.87;;
47659;SDS011;33403;43.608;1.458;2023-02-01T10:34:31;8.35;;;3.42;;
47659;SDS011;33403;43.608;1.458;2023-02-01T10:36:55;10.00;;;3.53;;
47659;SDS011;33403;43.608;1.458;2023-02-01T10:39:22;7.88;;;3.15;;
47659;SDS011;33403;43.608;1.458;2023-02-01T10:41:49;7.87;;;3.10;;
47659;SDS011;33403;43.608;1.458;2023-02-01T10:44:16;8.00;;;3.60;;
47659;SDS011;33403;43.608;1.458;2023-02-01T10:46:42;8.93;;;3.27;;
47659;SDS011;33403;43.608;1.458;2023-02-01T10:49:12;8.87;;;3.40;;
47659;SDS011;33403;43.608;1.458;2023-02-01T10:51:42;6.50;;;3.07;;
47659;SDS011;33403;43.608;1.458;2023-02-01T10:54:42;7.50;;;3.37;;
47659;SDS011;33403;43.608;1.458;2023-02-01T10:57:03;8.07;;;3.10;;
47659;SDS011;33403;43.608;1.458;2023-02-01T10:59:32;7.60;;;3.00;;
47659;SDS011;33403;43.608;1.458;2023-02-01T11:02:02;9.37;;;3.43;;
47659;SDS011;33403;43.608;1.458;2023-02-01T11:04:33;10.20;;;3.13;;
47659;SDS011;33403;43.608;1.458;2023-02-01T11:07:05;6.30;;;2.90;;
47659;SDS011;33403;43.608;1.458;2023-02-01T11:09:32;6.28;;;2.90;;
47659;SDS011;33403;43.608;1.458;2023-02-01T11:12:00;5.65;;;3.10;;
47659;SDS011;33403;43.608;1.458;2023-02-01T11:14:39;8.45;;;3.08;;
47659;SDS011;33403;43.608;1.458;2023-02-01T11:17:25;11.27;;;3.10;;
47659;SDS011;33403;43.608;1.458;2023-02-01T11:22:37;8.07;;;3.10;;
47659;SDS011;33403;43.608;1.458;2023-02-01T11:25:09;7.68;;;3.20;;
47659;SDS011;33403;43.608;1.458;2023-02-01T11:27:36;7.85;;;3.45;;
47659;SDS011;33403;43.608;1.458;2023-02-01T11:30:03;8.68;;;3.53;;
47659;SDS011;33403;43.608;1.458;2023-02-01T11:32:30;11.90;;;3.60;;
47659;SDS011;33403;43.608;1.458;2023-02-01T11:35:05;9.75;;;3.40;;
47659;SDS011;33403;43.608;1.458;2023-02-01T11:37:38;10.02;;;3.58;;
47659;SDS011;33403;43.608;1.458;2023-02-01T11:42:52;9.90;;;3.65;;
47659;SDS011;33403;43.608;1.458;2023-02-01T11:45:20;9.95;;;4.10;;
47659;SDS011;33403;43.608;1.458;2023-02-01T11:47:53;8.25;;;3.65;;
47659;SDS011;33403;43.608;1.458;2023-02-01T11:53:57;7.05;;;3.20;;
47659;SDS011;33403;43.608;1.458;2023-02-01T12:03:38;5.55;;;2.67;;
47659;SDS011;33403;43.608;1.458;2023-02-01T12:16:31;9.80;;;3.58;;
47659;SDS011;33403;43.608;1.458;2023-02-01T12:24:16;8.45;;;3.90;;
47659;SDS011;33403;43.608;1.458;2023-02-01T12:26:55;10.32;;;3.67;;
47659;SDS011;33403;43.608;1.458;2023-02-01T12:29:35;9.80;;;4.50;;
47659;SDS011;33403;43.608;1.458;2023-02-01T12:42:36;6.63;;;4.05;;
47659;SDS011;33403;43.608;1.458;2023-02-01T12:44:55;7.55;;;4.03;;
47659;SDS011;33403;43.608;1.458;2023-02-01T12:47:30;6.40;;;4.00;;
47659;SDS011;33403;43.608;1.458;2023-02-01T12:52:44;9.35;;;3.95;;
47659;SDS011;33403;43.608;1.458;2023-02-01T12:55:57;8.30;;;3.90;;
47659;SDS011;33403;43.608;1.458;2023-02-01T12:58:13;6.20;;;3.70;;
47659;SDS011;33403;43.608;1.458;2023-02-01T13:00:46;6.75;;;3.83;;
47659;SDS011;33403;43.608;1.458;2023-02-01T13:06:08;8.65;;;3.40;;
47659;SDS011;33403;43.608;1.458;2023-02-01T13:11:24;6.18;;;3.20;;
47659;SDS011;33403;43.608;1.458;2023-02-01T13:16:38;4.70;;;3.25;;
47659;SDS011;33403;43.608;1.458;2023-02-01T13:21:36;3.97;;;2.92;;
47659;SDS011;33403;43.608;1.458;2023-02-01T13:24:06;4.22;;;3.00;;
47659;SDS011;33403;43.608;1.458;2023-02-01T13:26:34;4.50;;;2.80;;
47659;SDS011;33403;43.608;1.458;2023-02-01T13:29:02;5.03;;;2.90;;
47659;SDS011;33403;43.608;1.458;2023-02-01T13:42:21;6.80;;;3.08;;
47659;SDS011;33403;43.608;1.458;2023-02-01T13:47:33;4.30;;;2.50;;
47659;SDS011;33403;43.608;1.458;2023-02-01T13:50:02;3.50;;;2.60;;
47659;SDS011;33403;43.608;1.458;2023-02-01T13:52:32;3.90;;;2.70;;
47659;SDS011;33403;43.608;1.458;2023-02-01T13:55:43;3.70;;;2.67;;
47659;SDS011;33403;43.608;1.458;2023-02-01T13:57:49;4.70;;;2.60;;
47659;SDS011;33403;43.608;1.458;2023-02-01T14:00:26;5.28;;;2.33;;
47659;SDS011;33403;43.608;1.458;2023-02-01T14:26:19;5.07;;;3.15;;
47659;SDS011;33403;43.608;1.458;2023-02-01T14:28:57;7.80;;;3.53;;
47659;SDS011;33403;43.608;1.458;2023-02-01T14:34:00;6.45;;;3.20;;
47659;SDS011;33403;43.608;1.458;2023-02-01T14:36:38;5.43;;;3.20;;
47659;SDS011;33403;43.608;1.458;2023-02-01T14:39:04;6.47;;;3.72;;
47659;SDS011;33403;43.608;1.458;2023-02-01T14:41:33;7.55;;;3.42;;
47659;SDS011;33403;43.608;1.458;2023-02-01T14:49:14;6.05;;;3.97;;
47659;SDS011;33403;43.608;1.458;2023-02-01T14:51:40;6.03;;;3.63;;
47659;SDS011;33403;43.608;1.458;2023-02-01T14:54:08;7.90;;;4.38;;
47659;SDS011;33403;43.608;1.458;2023-02-01T14:56:38;7.65;;;4.28;;
47659;SDS011;33403;43.608;1.458;2023-02-01T14:59:08;7.22;;;4.53;;
47659;SDS011;33403;43.608;1.458;2023-02-01T15:01:38;7.20;;;3.80;;
47659;SDS011;33403;43.608;1.458;2023-02-01T15:04:14;9.05;;;5.20;;
47659;SDS011;33403;43.608;1.458;2023-02-01T15:07:25;7.05;;;4.97;;
47659;SDS011;33403;43.608;1.458;2023-02-01T15:09:36;7.50;;;4.65;;
47659;SDS011;33403;43.608;1.458;2023-02-01T15:12:04;6.40;;;4.63;;
47659;SDS011;33403;43.608;1.458;2023-02-01T15:14:35;7.95;;;4.68;;
47659;SDS011;33403;43.608;1.458;2023-02-01T15:17:02;7.03;;;4.00;;
47659;SDS011;33403;43.608;1.458;2023-02-01T15:19:28;5.13;;;3.50;;
47659;SDS011;33403;43.608;1.458;2023-02-01T15:21:58;5.00;;;3.30;;
47659;SDS011;33403;43.608;1.458;2023-02-01T15:24:25;4.75;;;3.45;;
47659;SDS011;33403;43.608;1.458;2023-02-01T15:26:53;5.65;;;3.53;;
47659;SDS011;33403;43.608;1.458;2023-02-01T15:29:21;4.75;;;3.20;;
47659;SDS011;33403;43.608;1.458;2023-02-01T15:31:50;4.22;;;3.00;;
47659;SDS011;33403;43.608;1.458;2023-02-01T15:34:17;4.38;;;3.10;;
47659;SDS011;33403;43.608;1.458;2023-02-01T15:36:44;4.82;;;2.60;;
47659;SDS011;33403;43.608;1.458;2023-02-01T15:39:23;4.30;;;2.55;;
47659;SDS011;33403;43.608;1.458;2023-02-01T15:41:57;3.92;;;2.75;;
47659;SDS011;33403;43.608;1.458;2023-02-01T15:46:54;4.45;;;2.80;;
47659;SDS011;33403;43.608;1.458;2023-02-01T15:49:23;3.95;;;2.80;;
47659;SDS011;33403;43.608;1.458;2023-02-01T15:51:50;4.43;;;2.80;;
47659;SDS011;33403;43.608;1.458;2023-02-01T15:54:18;4.65;;;3.15;;
47659;SDS011;33403;43.608;1.458;2023-02-01T15:56:49;5.00;;;3.72;;
47659;SDS011;33403;43.608;1.458;2023-02-01T15:59:18;6.68;;;3.67;;
47659;SDS011;33403;43.608;1.458;2023-02-01T16:01:45;4.95;;;3.13;;
47659;SDS011;33403;43.608;1.458;2023-02-01T16:09:13;4.15;;;2.97;;
47659;SDS011;33403;43.608;1.458;2023-02-01T16:11:52;4.17;;;2.97;;
47659;SDS011;33403;43.608;1.458;2023-02-01T16:14:19;4.47;;;3.00;;
47659;SDS011;33403;43.608;1.458;2023-02-01T16:16:46;5.33;;;3.00;;
47659;SDS011;33403;43.608;1.458;2023-02-01T16:19:12;5.07;;;3.07;;
47659;SDS011;33403;43.608;1.458;2023-02-01T16:21:38;4.55;;;2.83;;
47659;SDS011;33403;43.608;1.458;2023-02-01T16:24:04;4.82;;;2.97;;
47659;SDS011;33403;43.608;1.458;2023-02-01T16:26:31;5.43;;;2.95;;
47659;SDS011;33403;43.608;1.458;2023-02-01T16:28:57;2.65;;;2.40;;
47659;SDS011;33403;43.608;1.458;2023-02-01T16:31:27;3.23;;;2.70;;
47659;SDS011;33403;43.608;1.458;2023-02-01T16:33:53;5.75;;;3.10;;
47659;SDS011;33403;43.608;1.458;2023-02-01T16:36:20;3.47;;;2.92;;
47659;SDS011;33403;43.608;1.458;2023-02-01T16:38:46;3.17;;;2.45;;
47659;SDS011;33403;43.608;1.458;2023-02-01T16:41:14;4.00;;;2.83;;
47659;SDS011;33403;43.608;1.458;2023-02-01T16:43:40;3.05;;;2.47;;
47659;SDS011;33403;43.608;1.458;2023-02-01T16:46:10;6.80;;;3.15;;
47659;SDS011;33403;43.608;1.458;2023-02-01T16:48:37;3.60;;;2.83;;
47659;SDS011;33403;43.608;1.458;2023-02-01T16:51:09;3.53;;;2.70;;
47659;SDS011;33403;43.608;1.458;2023-02-01T16:53:36;4.22;;;2.80;;
47659;SDS011;33403;43.608;1.458;2023-02-01T16:56:19;3.37;;;2.23;;
47659;SDS011;33403;43.608;1.458;2023-02-01T16:58:46;3.23;;;2.40;;
47659;SDS011;33403;43.608;1.458;2023-02-01T17:01:13;2.63;;;2.00;;
47659;SDS011;33403;43.608;1.458;2023-02-01T17:03:39;2.90;;;1.90;;
47659;SDS011;33403;43.608;1.458;2023-02-01T17:06:06;2.53;;;2.10;;
47659;SDS011;33403;43.608;1.458;2023-02-01T17:08:33;2.40;;;2.00;;
47659;SDS011;33403;43.608;1.458;2023-02-01T17:11:00;2.58;;;2.10;;
47659;SDS011;33403;43.608;1.458;2023-02-01T17:13:26;2.90;;;2.07;;
47659;SDS011;33403;43.608;1.458;2023-02-01T17:15:53;3.10;;;2.33;;
47659;SDS011;33403;43.608;1.458;2023-02-01T17:18:21;2.73;;;2.37;;
47659;SDS011;33403;43.608;1.458;2023-02-01T17:20:47;2.87;;;2.27;;
47659;SDS011;33403;43.608;1.458;2023-02-01T17:23:14;2.57;;;2.30;;
47659;SDS011;33403;43.608;1.458;2023-02-01T17:25:41;3.67;;;2.27;;
47659;SDS011;33403;43.608;1.458;2023-02-01T17:28:07;3.40;;;2.40;;